Terminal Aerodrome Forecast
Issued by NWS Northern Indiana

Home | Current Version | Previous Version | Text Only | Print | Product List | Glossary On
Versions: 1 2 3 4 5 6 7 8 9 10 11 12 13
000
FTUS43 KIWX 240547 CCA
TAFFWA
TAF COR
KFWA 240547Z 2406/2506 22007KT P6SM VCSH OVC090
      TEMPO 2406/2408 BKN013 OVC040
     FM241000 23009KT 4SM -RA OVC035
     FM241600 23012G21KT P6SM -SHRA OVC035
     FM250300 26014KT P6SM OVC035=

USA.gov is the U.S. government's official web portal to all federal, state and local government web resources and services.